sensor_id;sensor_type;location;lat;lon;timestamp;P1;durP1;ratioP1;P2;durP2;ratioP2
70367;SDS011;57789;53.868;10.728;2022-07-03T00:35:43;23.23;;;12.37;;
70367;SDS011;57789;53.868;10.728;2022-07-03T00:38:10;33.53;;;20.17;;
70367;SDS011;57789;53.868;10.728;2022-07-03T00:40:37;12.03;;;7.20;;
70367;SDS011;57789;53.868;10.728;2022-07-03T00:43:03;108.00;;;63.97;;
70367;SDS011;57789;53.868;10.728;2022-07-03T00:45:31;66.70;;;42.43;;
70367;SDS011;57789;53.868;10.728;2022-07-03T00:47:59;19.33;;;12.50;;
70367;SDS011;57789;53.868;10.728;2022-07-03T00:50:26;11.90;;;6.20;;
70367;SDS011;57789;53.868;10.728;2022-07-03T00:53:09;12.73;;;7.93;;
70367;SDS011;57789;53.868;10.728;2022-07-03T00:55:37;8.27;;;5.13;;
70367;SDS011;57789;53.868;10.728;2022-07-03T00:58:06;4.90;;;3.00;;
70367;SDS011;57789;53.868;10.728;2022-07-03T01:00:32;6.40;;;3.17;;
70367;SDS011;57789;53.868;10.728;2022-07-03T01:03:09;3.70;;;3.03;;
70367;SDS011;57789;53.868;10.728;2022-07-03T01:05:45;5.43;;;2.40;;
70367;SDS011;57789;53.868;10.728;2022-07-03T01:11:21;3.70;;;2.03;;
70367;SDS011;57789;53.868;10.728;2022-07-03T01:27:56;2.40;;;2.00;;
70367;SDS011;57789;53.868;10.728;2022-07-03T01:30:26;11.20;;;5.47;;
70367;SDS011;57789;53.868;10.728;2022-07-03T01:32:56;164.40;;;87.10;;
70367;SDS011;57789;53.868;10.728;2022-07-03T01:35:27;161.47;;;100.27;;
70367;SDS011;57789;53.868;10.728;2022-07-03T01:38:00;91.67;;;59.43;;
70367;SDS011;57789;53.868;10.728;2022-07-03T01:40:28;48.17;;;27.63;;
70367;SDS011;57789;53.868;10.728;2022-07-03T01:42:56;10.53;;;6.00;;
70367;SDS011;57789;53.868;10.728;2022-07-03T01:45:23;6.00;;;4.67;;
70367;SDS011;57789;53.868;10.728;2022-07-03T01:47:53;17.17;;;3.53;;
70367;SDS011;57789;53.868;10.728;2022-07-03T01:50:23;10.37;;;3.87;;
70367;SDS011;57789;53.868;10.728;2022-07-03T01:52:50;4.83;;;1.90;;
70367;SDS011;57789;53.868;10.728;2022-07-03T01:55:18;5.17;;;2.50;;
70367;SDS011;57789;53.868;10.728;2022-07-03T02:00:14;7.37;;;2.30;;
70367;SDS011;57789;53.868;10.728;2022-07-03T02:16:18;2.17;;;1.47;;
70367;SDS011;57789;53.868;10.728;2022-07-03T02:18:49;4.93;;;1.60;;
70367;SDS011;57789;53.868;10.728;2022-07-03T02:21:30;3.37;;;2.00;;
70367;SDS011;57789;53.868;10.728;2022-07-03T02:26:55;9.00;;;5.87;;
70367;SDS011;57789;53.868;10.728;2022-07-03T02:29:35;33.60;;;22.90;;
70367;SDS011;57789;53.868;10.728;2022-07-03T02:32:11;68.73;;;43.20;;
70367;SDS011;57789;53.868;10.728;2022-07-03T02:34:42;49.27;;;33.70;;
70367;SDS011;57789;53.868;10.728;2022-07-03T02:37:15;66.77;;;41.57;;
70367;SDS011;57789;53.868;10.728;2022-07-03T02:39:49;25.63;;;16.63;;
70367;SDS011;57789;53.868;10.728;2022-07-03T02:45:09;11.43;;;6.57;;
70367;SDS011;57789;53.868;10.728;2022-07-03T02:47:59;10.43;;;7.00;;
70367;SDS011;57789;53.868;10.728;2022-07-03T02:50:42;11.20;;;8.50;;
70367;SDS011;57789;53.868;10.728;2022-07-03T02:53:33;20.27;;;10.60;;
70367;SDS011;57789;53.868;10.728;2022-07-03T02:56:14;8.37;;;6.33;;
70367;SDS011;57789;53.868;10.728;2022-07-03T03:01:38;7.30;;;5.10;;
70367;SDS011;57789;53.868;10.728;2022-07-03T03:04:21;13.40;;;8.57;;
70367;SDS011;57789;53.868;10.728;2022-07-03T03:06:54;19.50;;;9.17;;
70367;SDS011;57789;53.868;10.728;2022-07-03T03:09:34;5.63;;;3.10;;
70367;SDS011;57789;53.868;10.728;2022-07-03T03:12:10;3.40;;;1.83;;
70367;SDS011;57789;53.868;10.728;2022-07-03T03:14:43;6.90;;;4.20;;
70367;SDS011;57789;53.868;10.728;2022-07-03T03:17:13;9.40;;;4.83;;
70367;SDS011;57789;53.868;10.728;2022-07-03T03:19:45;7.70;;;4.67;;
70367;SDS011;57789;53.868;10.728;2022-07-03T03:22:25;6.03;;;2.20;;
70367;SDS011;57789;53.868;10.728;2022-07-03T03:25:05;4.60;;;2.00;;
70367;SDS011;57789;53.868;10.728;2022-07-03T03:27:30;5.23;;;2.77;;
70367;SDS011;57789;53.868;10.728;2022-07-03T03:29:56;5.93;;;2.63;;
70367;SDS011;57789;53.868;10.728;2022-07-03T03:32:23;6.77;;;2.77;;
70367;SDS011;57789;53.868;10.728;2022-07-03T03:34:51;2.53;;;1.60;;
70367;SDS011;57789;53.868;10.728;2022-07-03T03:37:17;4.60;;;1.80;;
70367;SDS011;57789;53.868;10.728;2022-07-03T03:39:43;2.47;;;1.93;;
70367;SDS011;57789;53.868;10.728;2022-07-03T03:42:08;7.13;;;1.83;;
70367;SDS011;57789;53.868;10.728;2022-07-03T03:44:34;4.60;;;2.13;;
70367;SDS011;57789;53.868;10.728;2022-07-03T03:47:00;1.70;;;1.50;;
70367;SDS011;57789;53.868;10.728;2022-07-03T03:49:26;4.00;;;2.00;;
70367;SDS011;57789;53.868;10.728;2022-07-03T03:51:53;2.57;;;1.37;;
70367;SDS011;57789;53.868;10.728;2022-07-03T03:54:21;3.03;;;2.30;;
70367;SDS011;57789;53.868;10.728;2022-07-03T03:56:49;7.40;;;2.10;;
70367;SDS011;57789;53.868;10.728;2022-07-03T03:59:15;2.10;;;1.63;;
70367;SDS011;57789;53.868;10.728;2022-07-03T04:01:40;3.63;;;1.43;;
70367;SDS011;57789;53.868;10.728;2022-07-03T04:04:06;5.13;;;2.10;;
70367;SDS011;57789;53.868;10.728;2022-07-03T04:06:31;3.70;;;2.00;;
70367;SDS011;57789;53.868;10.728;2022-07-03T04:08:57;3.23;;;1.80;;
70367;SDS011;57789;53.868;10.728;2022-07-03T04:11:23;1.70;;;1.40;;
70367;SDS011;57789;53.868;10.728;2022-07-03T04:13:48;2.07;;;1.43;;
70367;SDS011;57789;53.868;10.728;2022-07-03T04:16:14;3.60;;;2.03;;
70367;SDS011;57789;53.868;10.728;2022-07-03T04:18:40;2.20;;;1.80;;
70367;SDS011;57789;53.868;10.728;2022-07-03T04:21:06;2.37;;;1.80;;
70367;SDS011;57789;53.868;10.728;2022-07-03T04:23:31;5.10;;;1.80;;
70367;SDS011;57789;53.868;10.728;2022-07-03T04:26:06;2.23;;;1.57;;
70367;SDS011;57789;53.868;10.728;2022-07-03T04:28:32;4.40;;;1.20;;
70367;SDS011;57789;53.868;10.728;2022-07-03T04:30:58;3.63;;;1.57;;
70367;SDS011;57789;53.868;10.728;2022-07-03T04:33:24;7.07;;;2.40;;
70367;SDS011;57789;53.868;10.728;2022-07-03T04:35:50;2.20;;;1.50;;
70367;SDS011;57789;53.868;10.728;2022-07-03T04:38:16;5.33;;;2.07;;
70367;SDS011;57789;53.868;10.728;2022-07-03T04:40:41;5.07;;;2.07;;
70367;SDS011;57789;53.868;10.728;2022-07-03T04:43:07;8.03;;;2.03;;
70367;SDS011;57789;53.868;10.728;2022-07-03T04:45:33;3.87;;;1.80;;
70367;SDS011;57789;53.868;10.728;2022-07-03T04:47:58;2.73;;;2.03;;
70367;SDS011;57789;53.868;10.728;2022-07-03T04:50:24;9.63;;;1.80;;
70367;SDS011;57789;53.868;10.728;2022-07-03T04:52:50;3.37;;;1.50;;
70367;SDS011;57789;53.868;10.728;2022-07-03T04:55:15;2.10;;;1.57;;
70367;SDS011;57789;53.868;10.728;2022-07-03T04:57:41;1.60;;;1.50;;
70367;SDS011;57789;53.868;10.728;2022-07-03T05:00:07;3.73;;;1.60;;
70367;SDS011;57789;53.868;10.728;2022-07-03T05:02:33;1.90;;;1.60;;
70367;SDS011;57789;53.868;10.728;2022-07-03T05:04:59;5.03;;;2.33;;
70367;SDS011;57789;53.868;10.728;2022-07-03T05:07:25;4.60;;;1.97;;
70367;SDS011;57789;53.868;10.728;2022-07-03T05:09:50;4.50;;;1.83;;
70367;SDS011;57789;53.868;10.728;2022-07-03T05:12:16;2.50;;;1.70;;
70367;SDS011;57789;53.868;10.728;2022-07-03T05:14:43;2.67;;;1.70;;
70367;SDS011;57789;53.868;10.728;2022-07-03T05:17:08;3.87;;;1.60;;
70367;SDS011;57789;53.868;10.728;2022-07-03T05:19:36;6.60;;;2.20;;
70367;SDS011;57789;53.868;10.728;2022-07-03T05:22:03;3.90;;;1.97;;
70367;SDS011;57789;53.868;10.728;2022-07-03T05:24:29;2.53;;;1.60;;
70367;SDS011;57789;53.868;10.728;2022-07-03T05:26:54;3.20;;;1.80;;
70367;SDS011;57789;53.868;10.728;2022-07-03T05:29:20;4.50;;;1.80;;
70367;SDS011;57789;53.868;10.728;2022-07-03T05:31:45;4.50;;;2.07;;
70367;SDS011;57789;53.868;10.728;2022-07-03T05:34:12;4.90;;;2.47;;
70367;SDS011;57789;53.868;10.728;2022-07-03T05:36:37;3.47;;;1.80;;
70367;SDS011;57789;53.868;10.728;2022-07-03T05:39:03;2.70;;;2.07;;
70367;SDS011;57789;53.868;10.728;2022-07-03T05:41:47;3.53;;;1.87;;
70367;SDS011;57789;53.868;10.728;2022-07-03T05:44:13;5.03;;;2.03;;
70367;SDS011;57789;53.868;10.728;2022-07-03T05:46:38;3.63;;;2.10;;
70367;SDS011;57789;53.868;10.728;2022-07-03T05:49:04;3.03;;;1.80;;
70367;SDS011;57789;53.868;10.728;2022-07-03T05:51:30;2.30;;;1.80;;
70367;SDS011;57789;53.868;10.728;2022-07-03T05:53:56;2.60;;;1.60;;
70367;SDS011;57789;53.868;10.728;2022-07-03T05:56:21;3.37;;;1.40;;
70367;SDS011;57789;53.868;10.728;2022-07-03T05:58:47;20.10;;;2.40;;
70367;SDS011;57789;53.868;10.728;2022-07-03T06:01:13;3.33;;;2.07;;
70367;SDS011;57789;53.868;10.728;2022-07-03T06:03:38;3.40;;;1.70;;
70367;SDS011;57789;53.868;10.728;2022-07-03T06:06:04;6.53;;;1.50;;
70367;SDS011;57789;53.868;10.728;2022-07-03T06:08:29;3.77;;;2.03;;
70367;SDS011;57789;53.868;10.728;2022-07-03T06:10:55;1.67;;;1.57;;
70367;SDS011;57789;53.868;10.728;2022-07-03T06:13:21;2.80;;;1.93;;
70367;SDS011;57789;53.868;10.728;2022-07-03T06:15:47;1.40;;;1.30;;
70367;SDS011;57789;53.868;10.728;2022-07-03T06:18:12;4.60;;;1.90;;
70367;SDS011;57789;53.868;10.728;2022-07-03T06:20:38;2.50;;;1.57;;
70367;SDS011;57789;53.868;10.728;2022-07-03T06:23:04;2.70;;;2.03;;
70367;SDS011;57789;53.868;10.728;2022-07-03T06:25:29;3.30;;;1.90;;
70367;SDS011;57789;53.868;10.728;2022-07-03T06:27:55;4.37;;;2.47;;
70367;SDS011;57789;53.868;10.728;2022-07-03T06:30:20;2.20;;;2.00;;
70367;SDS011;57789;53.868;10.728;2022-07-03T06:32:46;1.70;;;1.60;;
70367;SDS011;57789;53.868;10.728;2022-07-03T06:35:12;4.97;;;2.30;;
70367;SDS011;57789;53.868;10.728;2022-07-03T06:37:37;2.30;;;2.10;;
70367;SDS011;57789;53.868;10.728;2022-07-03T06:40:03;2.60;;;1.87;;
70367;SDS011;57789;53.868;10.728;2022-07-03T06:42:32;3.10;;;1.83;;
70367;SDS011;57789;53.868;10.728;2022-07-03T06:44:58;3.80;;;2.17;;
70367;SDS011;57789;53.868;10.728;2022-07-03T06:47:24;4.70;;;2.07;;
70367;SDS011;57789;53.868;10.728;2022-07-03T06:49:49;9.47;;;2.00;;
70367;SDS011;57789;53.868;10.728;2022-07-03T06:52:15;2.40;;;2.00;;
70367;SDS011;57789;53.868;10.728;2022-07-03T06:54:41;5.27;;;3.93;;
70367;SDS011;57789;53.868;10.728;2022-07-03T06:57:09;2.70;;;2.13;;
70367;SDS011;57789;53.868;10.728;2022-07-03T06:59:35;2.23;;;2.00;;
70367;SDS011;57789;53.868;10.728;2022-07-03T07:02:01;10.70;;;2.30;;
70367;SDS011;57789;53.868;10.728;2022-07-03T07:04:27;4.30;;;2.43;;
70367;SDS011;57789;53.868;10.728;2022-07-03T07:06:55;4.37;;;2.10;;
70367;SDS011;57789;53.868;10.728;2022-07-03T07:09:20;3.07;;;2.33;;
70367;SDS011;57789;53.868;10.728;2022-07-03T07:11:46;1.80;;;1.70;;
70367;SDS011;57789;53.868;10.728;2022-07-03T07:14:12;3.30;;;2.10;;
70367;SDS011;57789;53.868;10.728;2022-07-03T07:16:37;6.63;;;2.30;;
70367;SDS011;57789;53.868;10.728;2022-07-03T07:19:06;4.87;;;2.13;;
70367;SDS011;57789;53.868;10.728;2022-07-03T07:21:32;3.30;;;2.10;;
70367;SDS011;57789;53.868;10.728;2022-07-03T07:23:57;3.80;;;2.27;;
70367;SDS011;57789;53.868;10.728;2022-07-03T07:26:23;4.00;;;1.90;;
70367;SDS011;57789;53.868;10.728;2022-07-03T07:28:49;4.10;;;2.03;;
70367;SDS011;57789;53.868;10.728;2022-07-03T07:31:14;2.40;;;1.80;;
70367;SDS011;57789;53.868;10.728;2022-07-03T07:33:40;5.53;;;2.17;;
70367;SDS011;57789;53.868;10.728;2022-07-03T07:36:06;2.80;;;1.80;;
70367;SDS011;57789;53.868;10.728;2022-07-03T07:38:31;11.20;;;2.70;;
70367;SDS011;57789;53.868;10.728;2022-07-03T07:40:58;4.40;;;2.50;;
70367;SDS011;57789;53.868;10.728;2022-07-03T07:43:24;6.73;;;2.17;;
70367;SDS011;57789;53.868;10.728;2022-07-03T07:45:50;2.30;;;1.70;;
70367;SDS011;57789;53.868;10.728;2022-07-03T07:48:17;2.93;;;1.80;;
70367;SDS011;57789;53.868;10.728;2022-07-03T07:50:43;2.40;;;1.97;;
70367;SDS011;57789;53.868;10.728;2022-07-03T07:53:09;1.70;;;1.53;;
70367;SDS011;57789;53.868;10.728;2022-07-03T07:55:35;3.07;;;1.83;;
70367;SDS011;57789;53.868;10.728;2022-07-03T07:58:00;6.57;;;2.10;;
70367;SDS011;57789;53.868;10.728;2022-07-03T08:00:26;1.50;;;1.37;;
70367;SDS011;57789;53.868;10.728;2022-07-03T08:02:52;2.30;;;1.77;;
70367;SDS011;57789;53.868;10.728;2022-07-03T08:05:36;4.70;;;1.83;;
70367;SDS011;57789;53.868;10.728;2022-07-03T08:10:49;6.97;;;1.70;;
70367;SDS011;57789;53.868;10.728;2022-07-03T08:13:18;4.77;;;2.10;;
70367;SDS011;57789;53.868;10.728;2022-07-03T08:15:44;2.80;;;1.80;;
70367;SDS011;57789;53.868;10.728;2022-07-03T08:18:13;1.93;;;1.67;;
70367;SDS011;57789;53.868;10.728;2022-07-03T08:20:39;2.10;;;1.63;;
70367;SDS011;57789;53.868;10.728;2022-07-03T08:23:05;2.13;;;1.30;;
70367;SDS011;57789;53.868;10.728;2022-07-03T08:25:31;2.53;;;1.60;;
70367;SDS011;57789;53.868;10.728;2022-07-03T08:27:59;1.70;;;1.60;;
70367;SDS011;57789;53.868;10.728;2022-07-03T08:30:27;4.00;;;1.47;;
70367;SDS011;57789;53.868;10.728;2022-07-03T08:32:54;4.10;;;1.93;;
70367;SDS011;57789;53.868;10.728;2022-07-03T08:35:22;3.37;;;1.90;;
70367;SDS011;57789;53.868;10.728;2022-07-03T08:37:50;5.07;;;2.23;;
70367;SDS011;57789;53.868;10.728;2022-07-03T08:40:17;2.20;;;1.60;;
70367;SDS011;57789;53.868;10.728;2022-07-03T08:43:02;4.27;;;1.87;;
70367;SDS011;57789;53.868;10.728;2022-07-03T08:45:29;2.20;;;1.87;;
70367;SDS011;57789;53.868;10.728;2022-07-03T08:47:57;2.20;;;1.70;;
70367;SDS011;57789;53.868;10.728;2022-07-03T08:50:24;1.67;;;1.57;;
70367;SDS011;57789;53.868;10.728;2022-07-03T08:52:51;2.30;;;1.80;;
70367;SDS011;57789;53.868;10.728;2022-07-03T08:55:17;7.40;;;1.87;;
70367;SDS011;57789;53.868;10.728;2022-07-03T08:57:44;3.07;;;1.80;;
70367;SDS011;57789;53.868;10.728;2022-07-03T09:00:16;3.60;;;1.80;;
70367;SDS011;57789;53.868;10.728;2022-07-03T09:02:44;1.70;;;1.60;;
70367;SDS011;57789;53.868;10.728;2022-07-03T09:05:11;3.73;;;1.90;;
70367;SDS011;57789;53.868;10.728;2022-07-03T09:07:38;3.03;;;2.13;;
70367;SDS011;57789;53.868;10.728;2022-07-03T09:10:05;2.23;;;1.90;;
70367;SDS011;57789;53.868;10.728;2022-07-03T09:12:33;2.60;;;1.60;;
70367;SDS011;57789;53.868;10.728;2022-07-03T09:15:00;4.10;;;1.90;;
70367;SDS011;57789;53.868;10.728;2022-07-03T09:17:28;3.10;;;1.67;;
70367;SDS011;57789;53.868;10.728;2022-07-03T09:19:54;3.57;;;2.50;;
70367;SDS011;57789;53.868;10.728;2022-07-03T09:22:23;7.40;;;1.53;;
70367;SDS011;57789;53.868;10.728;2022-07-03T09:24:50;10.63;;;1.80;;
70367;SDS011;57789;53.868;10.728;2022-07-03T09:27:19;1.73;;;1.40;;
70367;SDS011;57789;53.868;10.728;2022-07-03T09:30:04;1.77;;;1.30;;
70367;SDS011;57789;53.868;10.728;2022-07-03T09:32:33;2.10;;;1.20;;
70367;SDS011;57789;53.868;10.728;2022-07-03T09:37:53;1.40;;;1.27;;
70367;SDS011;57789;53.868;10.728;2022-07-03T09:40:22;2.03;;;1.40;;
70367;SDS011;57789;53.868;10.728;2022-07-03T09:43:02;2.60;;;1.33;;
70367;SDS011;57789;53.868;10.728;2022-07-03T09:46:02;6.00;;;2.20;;
70367;SDS011;57789;53.868;10.728;2022-07-03T09:48:29;3.13;;;1.87;;
70367;SDS011;57789;53.868;10.728;2022-07-03T09:53:50;2.27;;;1.40;;
70367;SDS011;57789;53.868;10.728;2022-07-03T09:56:21;4.37;;;1.80;;
70367;SDS011;57789;53.868;10.728;2022-07-03T10:01:41;6.03;;;1.70;;
70367;SDS011;57789;53.868;10.728;2022-07-03T10:04:09;2.13;;;1.57;;
70367;SDS011;57789;53.868;10.728;2022-07-03T10:09:16;10.43;;;1.57;;
70367;SDS011;57789;53.868;10.728;2022-07-03T10:11:46;5.47;;;1.60;;
70367;SDS011;57789;53.868;10.728;2022-07-03T10:14:16;2.50;;;1.50;;
70367;SDS011;57789;53.868;10.728;2022-07-03T10:16:44;2.13;;;1.43;;
70367;SDS011;57789;53.868;10.728;2022-07-03T10:19:20;1.80;;;1.53;;
70367;SDS011;57789;53.868;10.728;2022-07-03T10:21:49;2.40;;;1.83;;
70367;SDS011;57789;53.868;10.728;2022-07-03T10:24:21;5.43;;;2.20;;
70367;SDS011;57789;53.868;10.728;2022-07-03T10:26:49;1.40;;;1.30;;
70367;SDS011;57789;53.868;10.728;2022-07-03T10:29:15;3.63;;;1.30;;
70367;SDS011;57789;53.868;10.728;2022-07-03T10:31:45;3.17;;;1.70;;
70367;SDS011;57789;53.868;10.728;2022-07-03T10:34:21;2.37;;;1.20;;
70367;SDS011;57789;53.868;10.728;2022-07-03T10:37:01;1.43;;;1.33;;
70367;SDS011;57789;53.868;10.728;2022-07-03T10:42:08;4.30;;;1.90;;
70367;SDS011;57789;53.868;10.728;2022-07-03T10:47:38;2.63;;;1.70;;
70367;SDS011;57789;53.868;10.728;2022-07-03T10:50:16;6.23;;;3.00;;
70367;SDS011;57789;53.868;10.728;2022-07-03T10:52:43;3.03;;;2.20;;
70367;SDS011;57789;53.868;10.728;2022-07-03T10:55:10;3.63;;;2.17;;
70367;SDS011;57789;53.868;10.728;2022-07-03T10:57:37;2.17;;;1.80;;
70367;SDS011;57789;53.868;10.728;2022-07-03T11:00:04;1.90;;;1.80;;
70367;SDS011;57789;53.868;10.728;2022-07-03T11:05:10;4.40;;;2.00;;
70367;SDS011;57789;53.868;10.728;2022-07-03T11:13:01;6.53;;;2.70;;
70367;SDS011;57789;53.868;10.728;2022-07-03T11:18:12;1.50;;;1.20;;
70367;SDS011;57789;53.868;10.728;2022-07-03T11:25:46;2.00;;;1.33;;
70367;SDS011;57789;53.868;10.728;2022-07-03T11:33:48;3.53;;;1.13;;
70367;SDS011;57789;53.868;10.728;2022-07-03T11:38:46;5.07;;;1.50;;
70367;SDS011;57789;53.868;10.728;2022-07-03T11:41:14;3.80;;;2.00;;
70367;SDS011;57789;53.868;10.728;2022-07-03T11:43:54;4.30;;;1.30;;
70367;SDS011;57789;53.868;10.728;2022-07-03T11:46:24;1.83;;;1.17;;
70367;SDS011;57789;53.868;10.728;2022-07-03T11:51:38;3.30;;;2.53;;
70367;SDS011;57789;53.868;10.728;2022-07-03T11:54:05;5.20;;;3.03;;
70367;SDS011;57789;53.868;10.728;2022-07-03T11:56:31;5.00;;;3.60;;
70367;SDS011;57789;53.868;10.728;2022-07-03T11:58:59;2.50;;;1.80;;
70367;SDS011;57789;53.868;10.728;2022-07-03T12:01:29;1.97;;;1.43;;
70367;SDS011;57789;53.868;10.728;2022-07-03T12:04:13;1.80;;;1.70;;
70367;SDS011;57789;53.868;10.728;2022-07-03T12:06:52;5.23;;;2.40;;
70367;SDS011;57789;53.868;10.728;2022-07-03T12:09:22;4.17;;;1.97;;
70367;SDS011;57789;53.868;10.728;2022-07-03T12:12:01;3.47;;;2.20;;
70367;SDS011;57789;53.868;10.728;2022-07-03T12:17:17;5.30;;;2.53;;
70367;SDS011;57789;53.868;10.728;2022-07-03T12:20:05;4.30;;;2.90;;
70367;SDS011;57789;53.868;10.728;2022-07-03T12:22:33;5.73;;;4.00;;
70367;SDS011;57789;53.868;10.728;2022-07-03T12:25:09;9.67;;;7.33;;
70367;SDS011;57789;53.868;10.728;2022-07-03T12:27:39;17.73;;;4.40;;
70367;SDS011;57789;53.868;10.728;2022-07-03T12:30:07;5.63;;;1.40;;
70367;SDS011;57789;53.868;10.728;2022-07-03T12:32:44;5.97;;;3.40;;
70367;SDS011;57789;53.868;10.728;2022-07-03T12:35:11;3.93;;;2.70;;
70367;SDS011;57789;53.868;10.728;2022-07-03T12:37:38;2.20;;;1.27;;
70367;SDS011;57789;53.868;10.728;2022-07-03T12:40:11;5.83;;;1.60;;
70367;SDS011;57789;53.868;10.728;2022-07-03T12:42:51;3.20;;;2.00;;
70367;SDS011;57789;53.868;10.728;2022-07-03T12:45:18;3.10;;;2.70;;
70367;SDS011;57789;53.868;10.728;2022-07-03T12:48:06;4.07;;;2.27;;
70367;SDS011;57789;53.868;10.728;2022-07-03T12:50:45;6.70;;;4.90;;
70367;SDS011;57789;53.868;10.728;2022-07-03T12:53:25;6.90;;;3.10;;
70367;SDS011;57789;53.868;10.728;2022-07-03T12:55:52;2.58;;;2.33;;
70367;SDS011;57789;53.868;10.728;2022-07-03T12:58:21;5.45;;;3.50;;
70367;SDS011;57789;53.868;10.728;2022-07-03T13:01:06;4.90;;;1.73;;
70367;SDS011;57789;53.868;10.728;2022-07-03T13:03:49;14.57;;;2.75;;
70367;SDS011;57789;53.868;10.728;2022-07-03T13:06:15;2.42;;;1.10;;
70367;SDS011;57789;53.868;10.728;2022-07-03T13:11:27;3.38;;;2.75;;
70367;SDS011;57789;53.868;10.728;2022-07-03T13:14:07;5.53;;;3.88;;
70367;SDS011;57789;53.868;10.728;2022-07-03T13:16:47;3.50;;;1.83;;
70367;SDS011;57789;53.868;10.728;2022-07-03T13:19:15;3.45;;;1.02;;
70367;SDS011;57789;53.868;10.728;2022-07-03T13:21:45;4.43;;;1.90;;
70367;SDS011;57789;53.868;10.728;2022-07-03T13:24:12;3.42;;;2.40;;
70367;SDS011;57789;53.868;10.728;2022-07-03T13:26:41;1.88;;;1.17;;
70367;SDS011;57789;53.868;10.728;2022-07-03T13:29:07;1.65;;;1.35;;
70367;SDS011;57789;53.868;10.728;2022-07-03T13:31:32;5.05;;;1.98;;
70367;SDS011;57789;53.868;10.728;2022-07-03T13:33:58;2.65;;;1.23;;
70367;SDS011;57789;53.868;10.728;2022-07-03T13:36:28;4.50;;;4.05;;
70367;SDS011;57789;53.868;10.728;2022-07-03T13:38:54;3.67;;;1.40;;
70367;SDS011;57789;53.868;10.728;2022-07-03T13:41:21;1.73;;;1.63;;
70367;SDS011;57789;53.868;10.728;2022-07-03T13:43:48;2.97;;;2.60;;
70367;SDS011;57789;53.868;10.728;2022-07-03T13:46:15;10.77;;;9.48;;
70367;SDS011;57789;53.868;10.728;2022-07-03T13:48:43;4.05;;;1.30;;
70367;SDS011;57789;53.868;10.728;2022-07-03T13:51:09;2.03;;;1.40;;
70367;SDS011;57789;53.868;10.728;2022-07-03T13:53:35;4.60;;;4.10;;
70367;SDS011;57789;53.868;10.728;2022-07-03T13:56:02;4.85;;;1.55;;
70367;SDS011;57789;53.868;10.728;2022-07-03T13:58:28;1.55;;;1.02;;
70367;SDS011;57789;53.868;10.728;2022-07-03T14:00:53;4.18;;;1.15;;
70367;SDS011;57789;53.868;10.728;2022-07-03T14:03:19;3.10;;;2.10;;
70367;SDS011;57789;53.868;10.728;2022-07-03T14:05:45;10.35;;;8.05;;
70367;SDS011;57789;53.868;10.728;2022-07-03T14:08:12;3.35;;;2.90;;
70367;SDS011;57789;53.868;10.728;2022-07-03T14:10:38;2.25;;;2.05;;
70367;SDS011;57789;53.868;10.728;2022-07-03T14:13:04;2.60;;;2.20;;
70367;SDS011;57789;53.868;10.728;2022-07-03T14:15:31;1.20;;;1.00;;
70367;SDS011;57789;53.868;10.728;2022-07-03T14:17:58;3.58;;;2.38;;
70367;SDS011;57789;53.868;10.728;2022-07-03T14:20:26;1.70;;;1.35;;
70367;SDS011;57789;53.868;10.728;2022-07-03T14:22:52;2.60;;;1.83;;
70367;SDS011;57789;53.868;10.728;2022-07-03T14:25:18;1.80;;;1.35;;
70367;SDS011;57789;53.868;10.728;2022-07-03T14:27:44;2.78;;;1.65;;
70367;SDS011;57789;53.868;10.728;2022-07-03T14:30:28;4.18;;;1.92;;
70367;SDS011;57789;53.868;10.728;2022-07-03T14:33:12;1.75;;;1.17;;
70367;SDS011;57789;53.868;10.728;2022-07-03T14:35:38;3.78;;;1.60;;
70367;SDS011;57789;53.868;10.728;2022-07-03T14:38:04;3.55;;;1.80;;
70367;SDS011;57789;53.868;10.728;2022-07-03T14:40:30;3.63;;;1.40;;
70367;SDS011;57789;53.868;10.728;2022-07-03T14:42:55;1.38;;;1.27;;
70367;SDS011;57789;53.868;10.728;2022-07-03T14:45:24;4.82;;;3.08;;
70367;SDS011;57789;53.868;10.728;2022-07-03T14:47:50;6.47;;;5.80;;
70367;SDS011;57789;53.868;10.728;2022-07-03T14:50:16;4.47;;;4.07;;
70367;SDS011;57789;53.868;10.728;2022-07-03T14:52:42;3.35;;;2.47;;
70367;SDS011;57789;53.868;10.728;2022-07-03T14:55:08;2.40;;;1.90;;
70367;SDS011;57789;53.868;10.728;2022-07-03T15:05:16;3.33;;;1.55;;
70367;SDS011;57789;53.868;10.728;2022-07-03T15:10:33;2.83;;;2.10;;
70367;SDS011;57789;53.868;10.728;2022-07-03T15:13:01;2.50;;;1.42;;
70367;SDS011;57789;53.868;10.728;2022-07-03T15:15:29;4.43;;;3.40;;
70367;SDS011;57789;53.868;10.728;2022-07-03T15:17:57;6.88;;;3.00;;
70367;SDS011;57789;53.868;10.728;2022-07-03T15:20:25;3.05;;;2.10;;
70367;SDS011;57789;53.868;10.728;2022-07-03T15:22:57;4.88;;;2.03;;
70367;SDS011;57789;53.868;10.728;2022-07-03T15:25:25;3.75;;;2.85;;
70367;SDS011;57789;53.868;10.728;2022-07-03T15:27:53;3.17;;;2.20;;
70367;SDS011;57789;53.868;10.728;2022-07-03T15:30:20;1.73;;;1.10;;
70367;SDS011;57789;53.868;10.728;2022-07-03T15:32:46;2.22;;;1.60;;
70367;SDS011;57789;53.868;10.728;2022-07-03T15:35:17;3.28;;;1.90;;
70367;SDS011;57789;53.868;10.728;2022-07-03T15:37:54;6.10;;;1.95;;
70367;SDS011;57789;53.868;10.728;2022-07-03T15:43:19;1.73;;;1.00;;
70367;SDS011;57789;53.868;10.728;2022-07-03T15:53:55;4.55;;;1.30;;
70367;SDS011;57789;53.868;10.728;2022-07-03T15:56:34;4.22;;;1.30;;
70367;SDS011;57789;53.868;10.728;2022-07-03T15:59:02;5.47;;;1.30;;
70367;SDS011;57789;53.868;10.728;2022-07-03T16:01:31;5.35;;;1.20;;
70367;SDS011;57789;53.868;10.728;2022-07-03T16:07:00;3.40;;;1.60;;
70367;SDS011;57789;53.868;10.728;2022-07-03T16:09:29;4.75;;;1.73;;
70367;SDS011;57789;53.868;10.728;2022-07-03T16:11:55;4.32;;;1.55;;
70367;SDS011;57789;53.868;10.728;2022-07-03T16:14:21;1.20;;;1.00;;
70367;SDS011;57789;53.868;10.728;2022-07-03T16:16:48;1.75;;;0.90;;
70367;SDS011;57789;53.868;10.728;2022-07-03T16:19:14;4.68;;;1.42;;
70367;SDS011;57789;53.868;10.728;2022-07-03T16:21:43;3.20;;;0.90;;
70367;SDS011;57789;53.868;10.728;2022-07-03T16:24:09;1.23;;;0.70;;
70367;SDS011;57789;53.868;10.728;2022-07-03T16:26:36;3.72;;;0.98;;
70367;SDS011;57789;53.868;10.728;2022-07-03T16:29:02;3.85;;;1.50;;
70367;SDS011;57789;53.868;10.728;2022-07-03T16:31:32;0.93;;;0.82;;
70367;SDS011;57789;53.868;10.728;2022-07-03T16:34:15;3.45;;;1.65;;
70367;SDS011;57789;53.868;10.728;2022-07-03T16:36:50;2.08;;;1.30;;
70367;SDS011;57789;53.868;10.728;2022-07-03T16:39:24;1.33;;;1.20;;
70367;SDS011;57789;53.868;10.728;2022-07-03T16:41:55;8.83;;;6.50;;
70367;SDS011;57789;53.868;10.728;2022-07-03T16:44:24;14.03;;;11.57;;
70367;SDS011;57789;53.868;10.728;2022-07-03T16:46:52;7.20;;;5.67;;
70367;SDS011;57789;53.868;10.728;2022-07-03T16:49:23;9.57;;;6.47;;
70367;SDS011;57789;53.868;10.728;2022-07-03T16:51:56;5.00;;;3.10;;
70367;SDS011;57789;53.868;10.728;2022-07-03T16:54:29;9.93;;;7.43;;
70367;SDS011;57789;53.868;10.728;2022-07-03T16:56:55;10.23;;;1.63;;
70367;SDS011;57789;53.868;10.728;2022-07-03T16:59:23;5.90;;;2.93;;
70367;SDS011;57789;53.868;10.728;2022-07-03T17:01:50;2.03;;;1.50;;
70367;SDS011;57789;53.868;10.728;2022-07-03T17:04:18;5.37;;;4.50;;
70367;SDS011;57789;53.868;10.728;2022-07-03T17:06:44;4.80;;;3.00;;
70367;SDS011;57789;53.868;10.728;2022-07-03T17:09:11;9.17;;;5.63;;
70367;SDS011;57789;53.868;10.728;2022-07-03T17:11:39;4.57;;;2.07;;
70367;SDS011;57789;53.868;10.728;2022-07-03T17:14:06;9.17;;;6.47;;
70367;SDS011;57789;53.868;10.728;2022-07-03T17:16:32;33.40;;;28.07;;